Time;durP1;ratioP1;P1;durP2;ratioP2;P2;SDS_P1;SDS_P2;PMS_P1;PMS_P2;Temp;Humidity;BMP_temperature;BMP_pressure;BME280_temperature;BME280_humidity;BME280_pressure;Samples;Min_cycle;Max_cycle;Signal;HPM_P1;HPM_P2
2021/12/24 00:00:44;;;;;;;6.72;6.00;;;8.40;99.90;;;;;;5053860;28;20207;-67
2021/12/24 00:03:13;;;;;;;6.60;5.88;;;8.50;99.90;;;;;;5053582;28;20302;-67
2021/12/24 00:05:40;;;;;;;7.80;6.28;;;8.50;99.90;;;;;;5053339;28;20219;-67
2021/12/24 00:08:08;;;;;;;7.18;5.63;;;8.60;99.90;;;;;;5053464;28;20199;-67
2021/12/24 00:10:39;;;;;;;6.13;5.53;;;8.60;99.90;;;;;;5053754;28;20658;-68
2021/12/24 00:13:11;;;;;;;7.68;5.18;;;8.70;99.90;;;;;;5053361;28;20238;-67
2021/12/24 00:15:51;;;;;;;5.30;4.82;;;8.70;99.90;;;;;;5052731;28;20312;-66
2021/12/24 00:18:28;;;;;;;5.10;4.55;;;8.70;99.90;;;;;;5052990;28;20215;-67
2021/12/24 00:37:48;;;;;;;6.22;4.68;;;8.90;99.90;;;;;;5011873;28;20660;-67
2021/12/24 00:40:19;;;;;;;5.60;4.53;;;9.00;99.90;;;;;;5011497;28;20251;-67
2021/12/24 00:42:49;;;;;;;4.82;4.07;;;9.00;99.90;;;;;;5030834;28;20207;-67
2021/12/24 00:45:19;;;;;;;6.00;4.78;;;9.00;99.90;;;;;;5053261;28;20220;-67
2021/12/24 00:47:46;;;;;;;4.85;4.35;;;9.10;99.90;;;;;;5053220;28;20757;-67
2021/12/24 00:50:18;;;;;;;7.90;4.80;;;9.10;99.90;;;;;;5053137;28;20207;-67
2021/12/24 00:52:48;;;;;;;6.38;5.05;;;9.10;99.90;;;;;;5053126;28;20233;-67
2021/12/24 00:55:16;;;;;;;5.55;4.60;;;9.10;99.90;;;;;;5052764;28;20227;-66
2021/12/24 00:57:46;;;;;;;7.13;5.00;;;9.20;99.90;;;;;;5052885;28;20210;-67
2021/12/24 01:00:15;;;;;;;5.10;4.35;;;9.20;99.90;;;;;;5053201;28;20676;-67
2021/12/24 01:02:44;;;;;;;5.93;4.85;;;9.20;99.90;;;;;;5052730;28;20226;-67
2021/12/24 01:05:14;;;;;;;5.18;4.50;;;9.20;99.90;;;;;;5052485;28;20343;-66
2021/12/24 01:07:41;;;;;;;7.28;5.05;;;9.20;99.90;;;;;;5052816;28;20203;-67
2021/12/24 01:10:09;;;;;;;5.90;5.10;;;9.20;99.90;;;;;;5053237;28;20207;-67
2021/12/24 01:12:37;;;;;;;6.03;4.88;;;9.20;99.90;;;;;;5053365;28;20274;-67
2021/12/24 01:15:05;;;;;;;5.97;5.22;;;9.10;99.90;;;;;;5052146;28;20243;-67
2021/12/24 01:17:39;;;;;;;5.60;4.78;;;9.10;99.90;;;;;;5052354;28;20204;-67
2021/12/24 01:20:19;;;;;;;6.63;5.10;;;9.10;99.90;;;;;;5052854;28;20204;-67
2021/12/24 01:25:35;;;;;;;5.22;4.70;;;9.10;99.90;;;;;;5051934;28;20250;-67
2021/12/24 01:28:32;;;;;;;4.95;4.45;;;9.10;99.90;;;;;;5052872;28;20199;-68
2021/12/24 01:39:21;;;;;;;4.05;3.60;;;9.30;99.90;;;;;;5056381;28;20288;-67
2021/12/24 01:44:33;;;;;;;4.45;3.83;;;9.30;99.90;;;;;;5056844;28;20352;-67
2021/12/24 01:47:02;;;;;;;5.18;4.10;;;9.30;99.90;;;;;;5056896;28;20206;-69
2021/12/24 01:49:29;;;;;;;4.30;3.90;;;9.30;99.90;;;;;;5057276;28;20214;-69
2021/12/24 01:51:58;;;;;;;4.82;3.78;;;9.20;99.90;;;;;;5056629;28;20210;-69
2021/12/24 01:54:25;;;;;;;4.15;3.75;;;9.20;99.90;;;;;;5056410;28;20235;-68
2021/12/24 01:56:52;;;;;;;4.20;3.80;;;9.30;99.90;;;;;;5056517;28;20237;-68
2021/12/24 01:59:19;;;;;;;4.80;3.90;;;9.30;99.90;;;;;;5056805;28;20207;-68
2021/12/24 02:01:46;;;;;;;4.78;4.00;;;9.30;99.90;;;;;;5056131;28;20205;-68
2021/12/24 02:04:14;;;;;;;5.07;3.78;;;9.30;99.90;;;;;;5056677;28;20227;-69
2021/12/24 02:06:42;;;;;;;4.32;3.80;;;9.40;99.90;;;;;;5057072;28;20204;-69
2021/12/24 02:09:11;;;;;;;4.70;3.70;;;9.50;99.90;;;;;;5058503;28;20208;-69
2021/12/24 02:11:38;;;;;;;3.67;3.38;;;9.70;99.90;;;;;;5059042;28;20208;-69
2021/12/24 02:14:07;;;;;;;4.07;3.70;;;9.70;99.90;;;;;;5058637;28;20680;-69
2021/12/24 02:16:46;;;;;;;4.43;4.03;;;9.70;99.90;;;;;;5058091;28;20310;-69
2021/12/24 02:30:30;;;;;;;4.70;4.03;;;9.80;99.90;;;;;;5057250;28;20237;-69
2021/12/24 02:32:56;;;;;;;4.55;3.95;;;9.70;99.90;;;;;;5057057;28;20674;-69
2021/12/24 02:35:24;;;;;;;3.83;3.30;;;9.60;99.90;;;;;;5057030;28;20231;-69
2021/12/24 02:37:53;;;;;;;4.07;3.40;;;9.70;99.90;;;;;;5057109;28;20203;-69
2021/12/24 02:40:20;;;;;;;5.00;3.83;;;9.70;99.90;;;;;;5057116;28;20223;-69
2021/12/24 02:42:51;;;;;;;3.97;3.58;;;9.80;99.90;;;;;;5057908;28;20200;-69
2021/12/24 02:45:19;;;;;;;3.85;3.45;;;9.90;99.90;;;;;;5057155;28;20310;-69
2021/12/24 02:48:08;;;;;;;4.45;3.90;;;9.90;99.90;;;;;;5057743;28;20207;-69
2021/12/24 02:56:09;;;;;;;4.28;3.88;;;9.90;99.90;;;;;;5057050;28;20277;-68
2021/12/24 02:58:43;;;;;;;4.03;3.63;;;9.90;99.90;;;;;;5057571;28;20199;-69
2021/12/24 03:01:12;;;;;;;6.10;3.80;;;9.90;99.90;;;;;;5056856;28;20693;-69
2021/12/24 03:03:39;;;;;;;7.20;3.60;;;10.00;99.90;;;;;;5056779;28;20213;-69
2021/12/24 03:06:06;;;;;;;4.25;3.65;;;10.00;99.90;;;;;;5056298;28;20310;-68
2021/12/24 03:08:35;;;;;;;4.55;3.47;;;9.90;99.90;;;;;;5056779;28;20210;-69
2021/12/24 03:11:02;;;;;;;4.40;4.00;;;9.90;99.90;;;;;;5057230;28;20203;-69
2021/12/24 03:13:29;;;;;;;4.00;3.60;;;9.90;99.90;;;;;;5057165;28;20286;-69
2021/12/24 03:15:58;;;;;;;4.88;3.70;;;9.90;99.90;;;;;;5056731;28;20294;-69
2021/12/24 03:18:28;;;;;;;4.20;3.80;;;9.90;99.90;;;;;;5056469;28;20206;-69
2021/12/24 03:21:03;;;;;;;5.55;4.03;;;9.80;99.90;;;;;;5056181;28;20684;-69
2021/12/24 03:23:37;;;;;;;4.47;4.07;;;9.80;99.90;;;;;;5056190;28;20237;-69
2021/12/24 03:26:07;;;;;;;6.32;3.58;;;9.80;99.90;;;;;;5056316;28;20310;-69
2021/12/24 03:28:34;;;;;;;3.78;3.42;;;9.80;99.90;;;;;;5056395;28;20214;-69
2021/12/24 03:31:02;;;;;;;3.90;3.50;;;9.90;99.90;;;;;;5056323;28;20207;-69
2021/12/24 03:33:29;;;;;;;4.20;3.47;;;9.90;99.90;;;;;;5056520;28;20203;-69
2021/12/24 03:35:56;;;;;;;3.80;3.50;;;10.00;99.90;;;;;;5056206;28;20253;-69
2021/12/24 03:38:22;;;;;;;4.00;3.60;;;10.00;99.90;;;;;;5056746;28;20214;-70
2021/12/24 03:40:49;;;;;;;3.85;3.45;;;10.00;99.90;;;;;;5056916;28;20210;-69
2021/12/24 03:43:17;;;;;;;3.90;3.60;;;10.10;99.90;;;;;;5056630;28;20221;-69
2021/12/24 03:45:55;;;;;;;5.57;3.88;;;10.10;99.90;;;;;;5056143;28;20224;-69
2021/12/24 03:48:26;;;;;;;3.97;3.50;;;10.10;99.90;;;;;;5056722;28;20723;-69
2021/12/24 03:51:00;;;;;;;3.70;3.33;;;10.10;99.90;;;;;;5056459;28;20661;-69
2021/12/24 03:56:11;;;;;;;4.00;3.65;;;10.00;99.90;;;;;;5055959;28;20230;-69
2021/12/24 03:58:39;;;;;;;5.75;4.03;;;10.00;99.90;;;;;;5055562;28;20200;-69
2021/12/24 04:01:06;;;;;;;5.57;3.85;;;10.10;99.90;;;;;;5057340;28;20238;-69
2021/12/24 04:03:33;;;;;;;4.43;4.03;;;10.00;99.90;;;;;;5056172;28;20649;-69
2021/12/24 04:06:00;;;;;;;4.70;4.22;;;10.00;99.90;;;;;;5055765;28;20222;-69
2021/12/24 04:08:27;;;;;;;3.85;3.45;;;9.90;99.90;;;;;;5055939;28;20199;-69
2021/12/24 04:10:54;;;;;;;4.35;3.65;;;10.00;99.90;;;;;;5056095;28;20214;-69
2021/12/24 04:13:20;;;;;;;4.05;3.65;;;10.00;99.90;;;;;;5056080;28;20208;-69
2021/12/24 04:15:49;;;;;;;4.20;3.35;;;10.00;99.90;;;;;;5055431;28;20314;-69
2021/12/24 04:18:20;;;;;;;4.13;3.50;;;9.90;99.90;;;;;;5055918;28;20199;-69
2021/12/24 04:26:15;;;;;;;3.95;3.30;;;9.90;99.90;;;;;;5055029;28;20276;-69
2021/12/24 04:28:42;;;;;;;4.07;3.67;;;9.90;99.90;;;;;;5055090;28;20200;-69
2021/12/24 04:31:11;;;;;;;4.10;3.70;;;9.90;99.90;;;;;;5054983;28;20254;-69
2021/12/24 04:33:40;;;;;;;4.57;3.58;;;9.90;99.90;;;;;;5055057;28;20206;-69
2021/12/24 04:36:23;;;;;;;3.88;3.40;;;9.90;99.90;;;;;;5054938;28;20263;-69
2021/12/24 04:52:55;;;;;;;5.88;4.60;;;9.70;99.90;;;;;;5054933;28;20669;-69
2021/12/24 05:03:40;;;;;;;4.43;3.90;;;9.70;99.90;;;;;;5055357;28;20199;-69
2021/12/24 05:06:12;;;;;;;4.00;3.70;;;9.80;99.90;;;;;;5054723;28;20248;-68
2021/12/24 05:08:47;;;;;;;4.22;3.38;;;9.80;99.90;;;;;;5054676;28;20202;-69
2021/12/24 05:11:14;;;;;;;4.00;3.60;;;10.00;99.90;;;;;;5054827;28;20627;-69
2021/12/24 05:13:41;;;;;;;4.15;3.70;;;10.10;99.90;;;;;;5054396;28;20213;-69
2021/12/24 05:16:18;;;;;;;4.00;3.60;;;10.30;99.90;;;;;;5053886;28;20219;-69
2021/12/24 05:21:43;;;;;;;4.38;3.88;;;10.50;99.90;;;;;;5053290;28;20658;-69
2021/12/24 05:24:13;;;;;;;9.32;7.50;;;10.60;99.90;;;;;;5053310;28;20314;-69
2021/12/24 05:26:41;;;;;;;5.38;4.40;;;10.70;99.90;;;;;;5054387;28;20203;-68
2021/12/24 05:29:08;;;;;;;5.95;3.78;;;10.60;99.90;;;;;;5053732;28;20199;-69
2021/12/24 05:31:36;;;;;;;3.55;3.25;;;10.70;99.90;;;;;;5053816;28;20210;-69
2021/12/24 05:34:04;;;;;;;3.97;3.67;;;10.60;99.90;;;;;;5053952;28;20207;-69
2021/12/24 05:36:31;;;;;;;3.65;3.35;;;10.70;99.90;;;;;;5053851;28;20227;-69
2021/12/24 05:38:59;;;;;;;4.20;3.80;;;10.70;99.90;;;;;;5053644;28;20211;-69
2021/12/24 05:41:27;;;;;;;4.57;4.18;;;10.60;99.90;;;;;;5053943;28;20253;-69
2021/12/24 05:43:54;;;;;;;4.18;3.78;;;10.60;99.90;;;;;;5054430;28;20227;-69
2021/12/24 05:46:21;;;;;;;4.90;3.78;;;10.60;99.90;;;;;;5054547;28;20203;-69
2021/12/24 05:48:48;;;;;;;4.20;3.80;;;10.50;99.90;;;;;;5054592;28;20215;-69
2021/12/24 05:51:19;;;;;;;4.10;3.60;;;10.50;99.90;;;;;;5053997;28;20599;-69
2021/12/24 05:53:47;;;;;;;5.90;4.47;;;10.50;99.90;;;;;;5053718;28;20203;-69
2021/12/24 05:56:14;;;;;;;4.63;4.22;;;10.60;99.90;;;;;;5053373;28;20318;-69
2021/12/24 05:58:40;;;;;;;9.00;5.70;;;10.60;99.90;;;;;;5054324;28;20294;-69
2021/12/24 06:01:07;;;;;;;6.20;4.65;;;10.60;99.90;;;;;;5054204;28;20203;-69
2021/12/24 06:03:34;;;;;;;4.63;4.22;;;10.60;99.90;;;;;;5053714;28;20303;-69
2021/12/24 06:06:01;;;;;;;4.35;3.95;;;10.50;99.90;;;;;;5054054;28;20250;-69
2021/12/24 06:08:29;;;;;;;4.53;4.00;;;10.50;99.90;;;;;;5053921;28;20214;-69
2021/12/24 06:10:56;;;;;;;4.30;3.90;;;10.60;99.90;;;;;;5053735;28;20199;-69
2021/12/24 06:13:25;;;;;;;4.35;3.92;;;10.50;99.90;;;;;;5054015;28;20207;-69
2021/12/24 06:15:52;;;;;;;4.63;4.20;;;10.50;99.90;;;;;;5053186;28;20314;-69
2021/12/24 06:18:24;;;;;;;4.28;3.95;;;10.50;99.90;;;;;;5053465;28;20207;-69
2021/12/24 06:20:51;;;;;;;4.47;4.07;;;10.50;99.90;;;;;;5054751;28;20239;-69
2021/12/24 06:23:20;;;;;;;4.18;3.78;;;10.50;99.90;;;;;;5057824;28;20298;-69
2021/12/24 06:25:48;;;;;;;6.00;4.10;;;10.50;99.90;;;;;;5057589;28;20223;-68
2021/12/24 06:28:16;;;;;;;5.05;4.00;;;10.50;99.90;;;;;;5057778;28;20199;-69
2021/12/24 06:30:43;;;;;;;4.55;4.15;;;10.50;99.90;;;;;;5057938;28;20210;-69
2021/12/24 06:33:10;;;;;;;4.60;4.20;;;10.50;99.90;;;;;;5058447;28;20234;-69
2021/12/24 06:35:38;;;;;;;6.80;4.38;;;10.50;99.90;;;;;;5057846;28;20672;-69
2021/12/24 06:38:05;;;;;;;5.47;4.70;;;10.50;99.90;;;;;;5057726;28;20220;-68
2021/12/24 06:40:33;;;;;;;5.38;4.68;;;10.60;99.90;;;;;;5057775;28;20214;-68
2021/12/24 06:43:01;;;;;;;5.30;4.80;;;10.60;99.90;;;;;;5057707;28;20203;-68
2021/12/24 06:45:28;;;;;;;8.45;5.28;;;10.60;99.90;;;;;;5056829;28;20226;-68
2021/12/24 06:47:57;;;;;;;5.63;4.50;;;10.60;99.90;;;;;;5056781;28;20210;-68
2021/12/24 06:50:25;;;;;;;7.85;7.07;;;10.70;99.90;;;;;;5057041;28;20231;-68
2021/12/24 06:52:53;;;;;;;5.40;4.90;;;10.80;99.90;;;;;;5057516;28;20670;-69
2021/12/24 06:55:20;;;;;;;4.78;4.32;;;10.80;99.90;;;;;;5056642;28;20230;-68
2021/12/24 06:57:47;;;;;;;6.15;5.00;;;10.80;99.90;;;;;;5057803;28;20227;-69
2021/12/24 07:00:19;;;;;;;5.30;4.80;;;10.80;99.90;;;;;;5057436;28;20238;-69
2021/12/24 07:02:46;;;;;;;5.60;4.70;;;10.80;99.90;;;;;;5057494;28;20214;-69
2021/12/24 07:05:15;;;;;;;6.05;5.10;;;10.80;99.90;;;;;;5057251;28;20218;-68
2021/12/24 07:07:42;;;;;;;5.03;4.32;;;10.80;99.90;;;;;;5057714;28;20569;-69
2021/12/24 07:10:09;;;;;;;6.30;4.97;;;10.80;99.90;;;;;;5057469;28;20394;-69
2021/12/24 07:12:37;;;;;;;6.03;5.50;;;10.80;99.90;;;;;;5057564;28;20213;-69
2021/12/24 07:15:05;;;;;;;5.40;4.90;;;10.80;99.90;;;;;;5057199;28;20230;-69
2021/12/24 07:17:33;;;;;;;5.07;4.60;;;10.70;99.90;;;;;;5057154;28;20231;-69
2021/12/24 07:20:00;;;;;;;5.30;4.80;;;10.80;99.90;;;;;;5057017;28;20215;-69
2021/12/24 07:22:27;;;;;;;5.43;4.93;;;10.80;99.90;;;;;;5057026;28;20202;-69
2021/12/24 07:24:54;;;;;;;4.97;4.57;;;10.80;99.90;;;;;;5056730;28;20223;-68
2021/12/24 07:27:20;;;;;;;4.88;4.45;;;10.70;99.90;;;;;;5056775;28;20200;-69
2021/12/24 07:29:47;;;;;;;5.57;5.07;;;10.70;99.90;;;;;;5056426;28;20203;-69
2021/12/24 07:32:14;;;;;;;4.90;4.40;;;10.70;99.90;;;;;;5055309;28;20290;-69
2021/12/24 07:34:42;;;;;;;5.53;4.97;;;10.70;99.90;;;;;;5056329;28;20227;-69
2021/12/24 07:37:09;;;;;;;5.30;4.80;;;10.70;99.90;;;;;;5056188;28;20251;-69
2021/12/24 07:39:36;;;;;;;5.65;5.13;;;10.70;99.90;;;;;;5055335;28;20243;-69
2021/12/24 07:42:03;;;;;;;4.75;4.35;;;10.70;99.90;;;;;;5055291;28;20199;-69
2021/12/24 07:44:33;;;;;;;5.55;4.90;;;10.70;99.90;;;;;;5055116;28;20306;-69
2021/12/24 07:47:02;;;;;;;5.07;4.57;;;10.70;99.90;;;;;;5055529;28;20200;-69
2021/12/24 07:49:38;;;;;;;4.88;4.40;;;10.70;99.90;;;;;;5055307;28;20215;-69
2021/12/24 07:52:12;;;;;;;5.35;4.85;;;10.60;99.90;;;;;;5055439;28;20203;-68
2021/12/24 07:54:42;;;;;;;6.15;4.80;;;10.60;99.90;;;;;;5054867;28;20223;-69
2021/12/24 07:57:11;;;;;;;6.53;4.80;;;10.60;99.90;;;;;;5055182;28;20235;-69
2021/12/24 07:59:39;;;;;;;6.63;5.07;;;10.60;99.90;;;;;;5055038;28;20215;-69
2021/12/24 08:02:10;;;;;;;4.70;4.30;;;10.60;99.90;;;;;;5055113;28;20207;-69
2021/12/24 08:04:38;;;;;;;5.65;4.95;;;10.60;99.90;;;;;;5054925;28;20310;-69
2021/12/24 08:07:06;;;;;;;4.70;4.28;;;10.60;99.90;;;;;;5055063;28;20207;-69
2021/12/24 08:09:33;;;;;;;6.70;5.00;;;10.60;99.90;;;;;;5055828;28;20212;-69
2021/12/24 08:12:00;;;;;;;4.80;4.30;;;10.60;99.90;;;;;;5055691;28;20234;-69
2021/12/24 08:14:27;;;;;;;5.75;4.40;;;10.70;99.90;;;;;;5055603;28;20228;-69
2021/12/24 08:16:54;;;;;;;4.82;4.00;;;10.70;99.90;;;;;;5055984;28;20218;-69
2021/12/24 08:19:21;;;;;;;4.60;4.20;;;10.60;99.90;;;;;;5055824;28;20296;-68
2021/12/24 08:21:47;;;;;;;5.45;4.95;;;10.60;99.90;;;;;;5055951;28;20260;-69
2021/12/24 08:24:15;;;;;;;5.18;4.28;;;10.60;99.90;;;;;;5055832;28;20227;-69
2021/12/24 08:26:43;;;;;;;5.47;4.97;;;10.60;99.90;;;;;;5055630;28;20313;-69
2021/12/24 08:29:10;;;;;;;5.07;4.57;;;10.60;99.90;;;;;;5055486;28;20290;-69
2021/12/24 08:31:38;;;;;;;5.30;4.50;;;10.60;99.90;;;;;;5055756;28;20290;-69
2021/12/24 08:34:06;;;;;;;4.43;4.03;;;10.70;99.90;;;;;;5055179;28;20203;-68
2021/12/24 08:36:34;;;;;;;4.50;4.10;;;10.60;99.90;;;;;;5054990;28;20207;-69
2021/12/24 08:39:01;;;;;;;4.40;4.00;;;10.60;99.90;;;;;;5055281;28;20238;-69
2021/12/24 08:41:29;;;;;;;4.85;4.38;;;10.60;99.90;;;;;;5055682;28;20267;-69
2021/12/24 08:43:56;;;;;;;4.97;4.35;;;10.70;99.90;;;;;;5054398;28;20199;-69
2021/12/24 08:46:23;;;;;;;5.00;4.15;;;10.70;99.90;;;;;;5054811;28;20757;-69
2021/12/24 08:48:50;;;;;;;4.65;4.10;;;10.70;99.90;;;;;;5055242;28;20210;-69
2021/12/24 08:51:17;;;;;;;4.40;4.00;;;10.70;99.90;;;;;;5055278;28;20294;-69
2021/12/24 08:53:43;;;;;;;4.88;4.20;;;10.80;99.90;;;;;;5055432;28;20203;-69
2021/12/24 08:56:10;;;;;;;6.25;4.38;;;10.80;99.90;;;;;;5054776;28;20226;-69
2021/12/24 08:58:39;;;;;;;3.70;3.40;;;10.80;99.90;;;;;;5054806;28;20227;-69
2021/12/24 09:01:07;;;;;;;5.10;4.55;;;10.80;99.90;;;;;;5054945;28;20214;-69
2021/12/24 09:03:34;;;;;;;4.95;4.45;;;10.80;99.90;;;;;;5054777;28;20207;-69
2021/12/24 09:06:01;;;;;;;4.15;3.78;;;10.80;99.90;;;;;;5053942;28;20220;-69
2021/12/24 09:08:28;;;;;;;4.40;4.00;;;10.80;99.90;;;;;;5054923;28;20206;-69
2021/12/24 09:10:54;;;;;;;4.43;4.03;;;10.80;99.90;;;;;;5054208;28;20678;-69
2021/12/24 09:13:21;;;;;;;4.80;4.40;;;10.80;99.90;;;;;;5054575;28;20200;-69
2021/12/24 09:15:53;;;;;;;6.47;4.25;;;10.70;99.90;;;;;;5054112;28;20223;-69
2021/12/24 09:18:20;;;;;;;4.90;4.40;;;10.80;99.90;;;;;;5053853;28;20227;-69
2021/12/24 09:20:48;;;;;;;7.15;6.15;;;10.70;99.90;;;;;;5053710;28;20757;-69
2021/12/24 09:23:17;;;;;;;5.45;4.85;;;10.80;99.90;;;;;;5053847;28;20593;-69
2021/12/24 09:25:44;;;;;;;5.03;4.63;;;10.80;99.90;;;;;;5053519;28;20230;-69
2021/12/24 09:28:11;;;;;;;5.00;4.50;;;10.80;99.90;;;;;;5053946;28;20200;-69
2021/12/24 09:30:38;;;;;;;4.35;3.95;;;10.70;99.90;;;;;;5054011;28;20573;-69
2021/12/24 09:33:07;;;;;;;5.10;4.60;;;10.70;99.90;;;;;;5054115;28;20199;-69
2021/12/24 09:35:34;;;;;;;4.88;4.38;;;10.70;99.90;;;;;;5053322;28;20219;-69
2021/12/24 09:38:02;;;;;;;4.53;4.13;;;10.70;99.90;;;;;;5054065;28;20310;-69
2021/12/24 09:40:33;;;;;;;6.05;5.43;;;10.70;99.90;;;;;;5053714;28;20539;-69
2021/12/24 09:43:00;;;;;;;5.68;4.68;;;10.70;99.90;;;;;;5053503;28;20203;-69
2021/12/24 09:45:27;;;;;;;5.72;4.60;;;10.70;99.90;;;;;;5053628;28;20222;-69
2021/12/24 09:47:54;;;;;;;5.13;4.63;;;10.60;99.90;;;;;;5053609;28;20202;-69
2021/12/24 09:50:26;;;;;;;5.03;4.50;;;10.70;99.90;;;;;;5053846;28;20203;-69
2021/12/24 09:52:53;;;;;;;5.97;5.18;;;10.70;99.90;;;;;;5053721;28;20680;-70
2021/12/24 09:55:23;;;;;;;5.30;4.65;;;10.60;99.90;;;;;;5054163;28;20227;-69
2021/12/24 09:57:51;;;;;;;7.15;4.75;;;10.60;99.90;;;;;;5057888;28;20250;-69
2021/12/24 10:00:21;;;;;;;5.90;4.75;;;10.50;99.90;;;;;;5057508;28;20208;-69
2021/12/24 10:02:54;;;;;;;5.22;4.72;;;10.50;99.90;;;;;;5057587;28;20253;-69
2021/12/24 10:05:46;;;;;;;6.68;5.55;;;10.50;99.90;;;;;;5056927;28;20227;-69
2021/12/24 10:08:19;;;;;;;5.60;4.97;;;10.50;99.90;;;;;;5042392;28;20662;-69
2021/12/24 10:10:50;;;;;;;5.18;4.78;;;10.60;99.90;;;;;;5057184;28;20207;-69
2021/12/24 10:13:38;;;;;;;7.32;5.13;;;10.60;99.90;;;;;;5057303;28;20218;-69
2021/12/24 10:16:07;;;;;;;5.32;4.75;;;10.60;99.90;;;;;;5056827;28;20231;-69
2021/12/24 10:18:38;;;;;;;6.07;4.82;;;10.50;99.90;;;;;;5056955;28;20227;-69
2021/12/24 10:21:11;;;;;;;4.93;4.50;;;10.60;99.90;;;;;;5057009;28;20203;-69
2021/12/24 10:23:47;;;;;;;5.93;4.72;;;10.60;99.90;;;;;;5056978;28;20290;-69
2021/12/24 10:26:18;;;;;;;5.18;4.20;;;10.60;99.90;;;;;;5056736;28;20581;-69
2021/12/24 10:28:59;;;;;;;5.13;4.57;;;10.70;99.90;;;;;;5056506;28;20202;-69
2021/12/24 10:31:30;;;;;;;4.70;4.30;;;10.60;99.90;;;;;;5056519;28;20689;-69
2021/12/24 10:34:21;;;;;;;4.18;3.83;;;10.60;99.90;;;;;;5056537;28;20210;-69
2021/12/24 10:37:22;;;;;;;4.80;4.30;;;10.70;99.90;;;;;;5056888;28;20203;-69
2021/12/24 10:39:52;;;;;;;5.18;4.68;;;10.70;99.90;;;;;;5023698;28;20211;-69
2021/12/24 10:42:26;;;;;;;5.35;4.85;;;10.70;99.90;;;;;;5056859;28;20229;-69
2021/12/24 10:44:57;;;;;;;4.40;4.00;;;10.70;99.90;;;;;;5056596;28;20281;-69
2021/12/24 10:47:26;;;;;;;4.18;3.88;;;10.70;99.90;;;;;;5057189;28;20208;-69
2021/12/24 10:50:06;;;;;;;4.25;3.90;;;10.70;99.90;;;;;;5057049;28;20199;-69
2021/12/24 10:53:01;;;;;;;4.20;3.80;;;10.70;99.90;;;;;;5057171;28;20289;-69
2021/12/24 10:55:32;;;;;;;4.40;4.00;;;10.70;99.90;;;;;;5056804;28;20582;-69
2021/12/24 10:58:00;;;;;;;4.05;3.65;;;10.60;99.90;;;;;;5056770;28;20227;-69
2021/12/24 11:00:32;;;;;;;4.80;4.07;;;10.60;99.90;;;;;;5056815;28;20247;-69
2021/12/24 11:03:04;;;;;;;5.97;3.72;;;10.60;99.90;;;;;;5056356;28;20208;-69
2021/12/24 11:05:36;;;;;;;5.13;4.10;;;10.60;99.90;;;;;;5056112;28;20237;-70
2021/12/24 11:08:06;;;;;;;3.80;3.45;;;10.60;99.90;;;;;;5056129;28;20563;-69
2021/12/24 11:10:37;;;;;;;4.28;3.63;;;10.60;99.90;;;;;;5056636;28;20213;-69
2021/12/24 11:13:08;;;;;;;4.55;3.58;;;10.60;99.90;;;;;;5056209;28;20208;-69
2021/12/24 11:15:38;;;;;;;4.40;3.85;;;10.60;99.90;;;;;;5055918;28;20230;-69
2021/12/24 11:18:07;;;;;;;3.85;3.40;;;10.60;99.90;;;;;;5055484;28;20763;-70
2021/12/24 11:20:34;;;;;;;3.45;3.15;;;10.70;99.90;;;;;;5055784;28;20204;-69
2021/12/24 11:23:06;;;;;;;4.53;3.35;;;10.70;99.90;;;;;;5055982;28;20199;-70
2021/12/24 11:25:37;;;;;;;3.67;3.25;;;10.70;99.90;;;;;;5056279;28;20318;-69
2021/12/24 11:28:05;;;;;;;4.47;3.05;;;10.70;99.90;;;;;;5055456;28;20195;-69
2021/12/24 11:30:33;;;;;;;3.60;3.30;;;10.70;99.90;;;;;;5055757;28;20200;-69
2021/12/24 11:33:00;;;;;;;3.60;3.30;;;10.70;99.90;;;;;;5055637;28;20680;-70
2021/12/24 11:35:28;;;;;;;3.33;3.05;;;10.60;99.90;;;;;;5055207;28;20732;-69
2021/12/24 11:37:55;;;;;;;3.00;2.80;;;10.70;99.90;;;;;;5055554;28;20231;-69
2021/12/24 11:40:25;;;;;;;3.47;3.17;;;10.70;99.90;;;;;;5055318;28;20573;-69
2021/12/24 11:42:55;;;;;;;4.05;3.70;;;10.80;99.90;;;;;;5055314;28;20204;-69
2021/12/24 11:45:24;;;;;;;3.58;2.75;;;10.80;99.90;;;;;;5054859;28;20253;-69
2021/12/24 11:47:52;;;;;;;3.28;2.97;;;10.80;99.90;;;;;;5055069;28;20286;-69
2021/12/24 11:50:20;;;;;;;3.97;3.60;;;10.80;99.90;;;;;;5055679;28;20206;-69
2021/12/24 11:52:50;;;;;;;3.10;2.80;;;10.80;99.90;;;;;;5055485;28;20253;-69
2021/12/24 11:55:18;;;;;;;3.38;3.05;;;10.90;99.90;;;;;;5066258;28;20219;-69
2021/12/24 11:57:55;;;;;;;3.28;2.97;;;10.90;99.90;;;;;;5053470;28;20211;-69
2021/12/24 12:00:25;;;;;;;3.05;2.80;;;10.90;99.90;;;;;;5053979;28;20209;-69
2021/12/24 12:02:52;;;;;;;2.72;2.53;;;10.90;99.90;;;;;;5054179;28;20196;-69
2021/12/24 12:05:24;;;;;;;3.10;2.80;;;11.00;99.90;;;;;;5053600;28;20226;-69
2021/12/24 12:07:53;;;;;;;3.15;2.85;;;11.00;99.90;;;;;;5053350;28;20246;-69
2021/12/24 12:10:51;;;;;;;2.55;2.40;;;11.00;99.90;;;;;;5053825;28;20211;-68
2021/12/24 12:13:46;;;;;;;3.10;2.70;;;11.00;99.90;;;;;;5049609;28;20613;-68
2021/12/24 12:16:16;;;;;;;2.38;2.25;;;11.10;99.90;;;;;;5053030;28;20254;-71
2021/12/24 12:18:47;;;;;;;3.47;2.25;;;11.20;99.90;;;;;;5052597;28;20581;-66
2021/12/24 12:21:22;;;;;;;2.55;2.33;;;11.20;99.90;;;;;;5053932;28;20610;-66
2021/12/24 12:24:56;;;;;;;2.38;2.15;;;11.20;99.90;;;;;;5053891;28;20211;-66
2021/12/24 12:26:42;;;;;;;2.45;2.25;;;11.10;99.90;;;;;;5053112;28;20207;-66
2021/12/24 12:29:43;;;;;;;2.10;2.00;;;11.10;99.90;;;;;;5053436;28;20238;-65
2021/12/24 12:32:28;;;;;;;2.88;1.95;;;11.20;99.90;;;;;;5051162;28;20214;-66
2021/12/24 12:35:01;;;;;;;1.85;1.75;;;11.20;99.90;;;;;;5053362;28;20223;-66
2021/12/24 12:37:30;;;;;;;2.45;1.80;;;11.20;99.90;;;;;;5053152;28;20678;-66
2021/12/24 12:40:05;;;;;;;1.58;1.48;;;11.20;99.90;;;;;;5053059;28;20223;-66
2021/12/24 12:43:08;;;;;;;2.05;1.77;;;11.20;99.90;;;;;;5053182;28;20233;-66
2021/12/24 12:46:04;;;;;;;1.92;1.33;;;11.20;99.90;;;;;;5052889;28;20687;-66
2021/12/24 12:48:49;;;;;;;1.40;1.30;;;11.20;99.90;;;;;;5052949;28;20203;-68
2021/12/24 12:51:16;;;;;;;1.88;1.70;;;11.20;99.90;;;;;;5052637;28;20203;-68
2021/12/24 12:53:43;;;;;;;1.77;1.40;;;11.20;99.90;;;;;;5053354;28;20211;-68
2021/12/24 12:56:17;;;;;;;1.58;1.42;;;11.20;99.90;;;;;;5052424;28;20322;-68
2021/12/24 12:58:46;;;;;;;1.50;1.40;;;11.20;99.90;;;;;;5052966;28;20223;-69
2021/12/24 13:01:19;;;;;;;1.30;1.30;;;11.20;99.90;;;;;;5052895;28;20231;-69
2021/12/24 13:04:10;;;;;;;1.75;1.65;;;11.20;99.90;;;;;;5053351;28;20200;-69
2021/12/24 13:06:55;;;;;;;1.90;1.80;;;11.20;99.90;;;;;;5053219;28;20207;-68
2021/12/24 13:09:25;;;;;;;0.93;0.93;;;11.20;99.90;;;;;;5052634;28;20630;-68
2021/12/24 13:11:53;;;;;;;1.60;1.50;;;11.30;99.90;;;;;;5052987;28;20290;-68
2021/12/24 13:14:22;;;;;;;1.88;1.77;;;11.30;99.90;;;;;;5053115;28;20651;-68
2021/12/24 13:16:54;;;;;;;2.03;1.83;;;11.30;99.90;;;;;;5052491;28;20267;-69
2021/12/24 13:19:30;;;;;;;1.40;1.30;;;11.30;99.90;;;;;;5052497;28;20249;-68
2021/12/24 13:24:47;;;;;;;2.00;1.50;;;11.30;99.90;;;;;;5052278;28;20266;-68
2021/12/24 13:27:14;;;;;;;1.30;1.20;;;11.30;99.90;;;;;;5052591;28;20291;-67
2021/12/24 13:29:41;;;;;;;1.52;1.52;;;11.30;99.90;;;;;;5052744;28;20658;-67
2021/12/24 13:32:09;;;;;;;2.58;2.10;;;11.30;99.90;;;;;;5052806;28;20238;-67
2021/12/24 13:34:37;;;;;;;1.73;1.63;;;11.30;99.90;;;;;;5052342;28;20237;-67
2021/12/24 13:37:12;;;;;;;1.80;1.70;;;11.40;99.90;;;;;;5052522;28;20207;-67
2021/12/24 13:39:47;;;;;;;1.60;1.50;;;11.40;99.90;;;;;;5052218;28;20241;-67
2021/12/24 13:42:14;;;;;;;2.40;1.95;;;11.40;99.90;;;;;;5052614;28;20309;-68
2021/12/24 13:44:41;;;;;;;6.82;5.55;;;11.40;99.90;;;;;;5052276;28;20224;-68
2021/12/24 13:47:15;;;;;;;5.07;3.63;;;11.40;99.90;;;;;;5052447;28;20299;-67
2021/12/24 13:55:35;;;;;;;2.40;2.00;;;11.40;99.90;;;;;;5048156;28;20268;-68
2021/12/24 13:58:03;;;;;;;2.70;2.50;;;11.40;99.90;;;;;;5052693;28;20231;-68
2021/12/24 14:00:32;;;;;;;2.15;1.95;;;11.50;99.90;;;;;;5052021;28;20223;-68
2021/12/24 14:03:02;;;;;;;2.25;2.05;;;11.50;99.90;;;;;;5052178;28;20210;-69
2021/12/24 14:05:29;;;;;;;2.05;1.90;;;11.50;99.90;;;;;;5052269;28;20223;-70
2021/12/24 14:08:07;;;;;;;3.42;3.13;;;11.50;99.90;;;;;;5052854;28;20294;-70
2021/12/24 14:10:34;;;;;;;1.80;1.70;;;11.50;99.90;;;;;;5052439;28;20203;-70
2021/12/24 14:13:06;;;;;;;1.70;1.60;;;11.40;99.90;;;;;;5052474;28;20621;-69
2021/12/24 14:15:43;;;;;;;2.00;1.90;;;11.40;99.90;;;;;;5052395;28;20224;-69
2021/12/24 14:18:32;;;;;;;2.30;2.10;;;11.30;99.90;;;;;;5052071;28;20211;-69
2021/12/24 14:21:44;;;;;;;1.90;1.80;;;11.30;99.90;;;;;;5052514;28;20214;-69
2021/12/24 14:24:04;;;;;;;2.40;2.20;;;11.30;99.90;;;;;;5051509;28;20432;-70
2021/12/24 14:26:33;;;;;;;2.00;1.90;;;11.30;99.90;;;;;;5050805;28;20511;-70
2021/12/24 14:29:06;;;;;;;3.08;2.78;;;11.40;99.90;;;;;;5051747;28;20637;-71
2021/12/24 14:31:48;;;;;;;2.20;2.10;;;11.40;99.90;;;;;;5051673;28;20203;-71
2021/12/24 14:34:31;;;;;;;2.53;2.30;;;11.40;99.90;;;;;;5051899;28;20227;-71
2021/12/24 14:36:58;;;;;;;2.35;2.15;;;11.30;99.90;;;;;;5051689;28;20294;-71